createdAt,value
2022-10-31T00:02:14.428Z,2.50
2022-10-31T00:05:22.611Z,2.00
2022-10-31T00:08:30.805Z,2.30
2022-10-31T00:11:39.133Z,1.77
2022-10-31T00:14:47.425Z,2.80
2022-10-31T00:17:57.480Z,2.33
2022-10-31T00:21:06.673Z,2.07
2022-10-31T00:24:15.313Z,2.73
2022-10-31T00:27:23.638Z,2.40
2022-10-31T00:30:33.193Z,2.40
2022-10-31T00:33:43.760Z,2.60
2022-10-31T00:36:52.271Z,2.13
2022-10-31T00:40:00.623Z,2.47
2022-10-31T00:43:09.009Z,2.70
2022-10-31T00:46:17.669Z,2.10
2022-10-31T00:49:27.434Z,2.17
2022-10-31T00:52:36.004Z,2.33
2022-10-31T00:55:44.819Z,2.20
2022-10-31T00:58:53.208Z,2.80
2022-10-31T01:02:02.879Z,2.53
2022-10-31T01:05:12.648Z,2.80
2022-10-31T01:08:20.817Z,2.43
2022-10-31T01:11:35.225Z,2.23
2022-10-31T01:14:47.566Z,2.80
2022-10-31T01:17:55.979Z,2.57
2022-10-31T01:24:27.546Z,2.07
2022-10-31T01:27:36.386Z,2.20
2022-10-31T01:30:44.768Z,2.67
2022-10-31T01:33:53.825Z,2.60
2022-10-31T01:37:02.885Z,2.30
2022-10-31T01:40:13.986Z,2.17
2022-10-31T01:46:41.838Z,2.20
2022-10-31T01:49:55.951Z,2.00
2022-10-31T01:53:07.182Z,2.30
2022-10-31T01:56:19.843Z,5.27
2022-10-31T01:59:33.164Z,3.97
2022-10-31T02:02:44.042Z,3.50
2022-10-31T02:05:55.397Z,2.63
2022-10-31T02:09:07.738Z,3.50
2022-10-31T02:12:19.749Z,3.40
2022-10-31T02:15:28.854Z,2.57
2022-10-31T02:18:37.326Z,2.63
2022-10-31T02:21:56.107Z,2.37
2022-10-31T02:25:36.612Z,1.90
2022-10-31T02:29:35.637Z,2.10
2022-10-31T02:33:17.763Z,2.17
2022-10-31T02:36:34.662Z,2.17
2022-10-31T02:39:58.835Z,2.20
2022-10-31T02:43:29.578Z,1.83
2022-10-31T02:46:47.055Z,2.23
2022-10-31T02:50:09.023Z,2.10
2022-10-31T02:53:18.064Z,1.80
2022-10-31T02:56:26.530Z,1.87
2022-10-31T02:59:39.182Z,1.97
2022-10-31T03:03:05.951Z,1.63
2022-10-31T03:06:26.231Z,2.17
2022-10-31T03:09:49.194Z,2.13
2022-10-31T03:13:11.839Z,2.20
2022-10-31T03:16:31.212Z,1.87
2022-10-31T03:19:48.103Z,1.83
2022-10-31T03:23:01.491Z,1.97
2022-10-31T03:26:13.437Z,2.03
2022-10-31T03:29:27.716Z,2.17
2022-10-31T03:32:44.126Z,1.53
2022-10-31T03:35:56.802Z,1.40
2022-10-31T03:39:14.133Z,1.77
2022-10-31T03:42:26.981Z,1.70
2022-10-31T03:45:41.430Z,1.80
2022-10-31T03:48:50.143Z,2.10
2022-10-31T03:52:05.185Z,1.53
2022-10-31T03:55:21.452Z,1.97
2022-10-31T03:58:38.339Z,1.70
2022-10-31T04:01:54.097Z,2.30
2022-10-31T04:05:04.596Z,2.27
2022-10-31T04:08:21.311Z,1.60
2022-10-31T04:11:37.154Z,2.60
2022-10-31T04:15:08.687Z,2.17
2022-10-31T04:18:17.282Z,2.20
2022-10-31T04:21:30.447Z,1.70
2022-10-31T04:24:42.498Z,1.60
2022-10-31T04:27:56.719Z,2.30
2022-10-31T04:31:05.942Z,2.07
2022-10-31T04:34:18.428Z,1.90
2022-10-31T04:37:26.776Z,2.57
2022-10-31T04:40:35.314Z,2.40
2022-10-31T04:44:17.453Z,2.63
2022-10-31T04:47:29.152Z,1.90
2022-10-31T04:50:37.596Z,1.90
2022-10-31T04:53:45.909Z,2.17
2022-10-31T04:57:09.684Z,2.17
2022-10-31T05:00:24.570Z,1.50
2022-10-31T05:03:33.179Z,1.60
2022-10-31T05:06:41.600Z,1.60
2022-10-31T05:09:50.625Z,1.57
2022-10-31T05:13:03.922Z,1.77
2022-10-31T05:16:32.640Z,1.50
2022-10-31T05:20:03.532Z,2.00
2022-10-31T05:23:32.269Z,1.90
2022-10-31T05:26:41.947Z,1.73
2022-10-31T05:29:51.614Z,2.10
2022-10-31T05:33:02.782Z,1.63
2022-10-31T05:36:47.921Z,2.07
2022-10-31T05:40:08.053Z,1.93
2022-10-31T05:43:17.505Z,1.80
2022-10-31T05:46:26.777Z,1.50
2022-10-31T05:50:12.992Z,1.47
2022-10-31T05:53:28.746Z,2.07
2022-10-31T05:56:37.738Z,11.63
2022-10-31T05:59:49.936Z,3.93
2022-10-31T06:03:04.192Z,2.67
2022-10-31T06:06:24.999Z,1.80
2022-10-31T06:09:34.378Z,2.50
2022-10-31T06:12:43.190Z,3.30
2022-10-31T06:16:11.876Z,2.80
2022-10-31T06:19:21.787Z,2.40
2022-10-31T06:26:26.768Z,2.10
2022-10-31T06:29:35.641Z,2.23
2022-10-31T06:32:50.391Z,5.10
2022-10-31T06:35:58.942Z,5.67
2022-10-31T06:39:08.272Z,5.40
2022-10-31T06:42:19.333Z,5.13
2022-10-31T06:45:28.526Z,3.97
2022-10-31T06:48:55.193Z,3.00
2022-10-31T06:52:24.306Z,2.83
2022-10-31T06:55:36.362Z,2.90
2022-10-31T06:58:47.662Z,3.10
2022-10-31T07:01:59.479Z,3.70
2022-10-31T07:05:09.058Z,5.03
2022-10-31T07:08:17.781Z,4.70
2022-10-31T07:11:29.606Z,4.77
2022-10-31T07:14:40.839Z,5.30
2022-10-31T07:17:49.437Z,5.53
2022-10-31T07:21:01.517Z,4.50
2022-10-31T07:24:09.912Z,4.77
2022-10-31T07:27:42.726Z,4.23
2022-10-31T07:30:56.990Z,3.90
2022-10-31T07:34:07.150Z,4.13
2022-10-31T07:37:35.312Z,4.03
2022-10-31T07:40:45.860Z,2.60
2022-10-31T07:43:57.046Z,2.17
2022-10-31T07:47:46.928Z,1.93
2022-10-31T07:51:14.021Z,1.73
2022-10-31T07:54:57.714Z,2.00
2022-10-31T07:58:09.607Z,1.57
2022-10-31T08:01:21.359Z,1.60
2022-10-31T08:04:48.348Z,1.30
2022-10-31T08:08:22.483Z,1.17
2022-10-31T08:11:30.866Z,1.30
2022-10-31T08:14:40.454Z,2.13
2022-10-31T08:17:49.724Z,3.17
2022-10-31T08:20:59.758Z,3.30
2022-10-31T08:24:09.383Z,2.00
2022-10-31T08:27:21.205Z,1.97
2022-10-31T08:30:32.712Z,2.20
2022-10-31T08:34:00.097Z,1.80
2022-10-31T08:37:25.623Z,2.37
2022-10-31T08:40:41.185Z,1.90
2022-10-31T08:43:49.688Z,2.03
2022-10-31T08:46:58.013Z,2.03
2022-10-31T08:50:10.813Z,1.70
2022-10-31T08:53:23.603Z,1.70
2022-10-31T08:56:43.776Z,2.20
2022-10-31T09:00:08.844Z,1.80
2022-10-31T09:03:35.841Z,1.90
2022-10-31T09:07:07.900Z,2.87
2022-10-31T09:10:15.508Z,1.90
2022-10-31T09:13:28.125Z,2.03
2022-10-31T09:16:55.758Z,2.07
2022-10-31T09:20:13.449Z,1.43
2022-10-31T09:23:24.390Z,1.43
2022-10-31T09:26:37.280Z,1.63
2022-10-31T09:30:11.452Z,1.30
2022-10-31T09:33:20.763Z,1.30
2022-10-31T09:36:42.294Z,1.30
2022-10-31T09:39:56.615Z,1.30
2022-10-31T09:43:31.360Z,1.27
2022-10-31T09:47:00.731Z,1.93
2022-10-31T09:50:22.119Z,1.60
2022-10-31T09:53:40.933Z,1.67
2022-10-31T09:56:54.837Z,1.10
2022-10-31T10:00:07.516Z,1.23
2022-10-31T10:03:36.388Z,1.80
2022-10-31T10:07:05.155Z,1.30
2022-10-31T10:10:40.933Z,1.40
2022-10-31T10:14:37.402Z,1.30
2022-10-31T10:18:01.890Z,1.80
2022-10-31T10:21:28.251Z,1.63
2022-10-31T10:25:04.099Z,1.60
2022-10-31T10:28:23.680Z,2.27
2022-10-31T10:31:42.451Z,1.30
2022-10-31T10:35:00.120Z,1.37
2022-10-31T10:38:20.159Z,1.50
2022-10-31T10:41:35.863Z,1.77
2022-10-31T10:45:06.951Z,1.67
2022-10-31T10:48:40.545Z,1.63
2022-10-31T10:55:40.309Z,1.63
2022-10-31T10:58:50.021Z,1.30
2022-10-31T11:02:00.638Z,2.03
2022-10-31T11:05:24.377Z,1.63
2022-10-31T11:08:37.716Z,1.27
2022-10-31T11:11:46.491Z,2.00
2022-10-31T11:15:00.567Z,1.70
2022-10-31T11:21:38.511Z,1.73
2022-10-31T11:24:48.858Z,1.63
2022-10-31T11:28:05.975Z,2.53
2022-10-31T11:31:18.009Z,2.13
2022-10-31T11:34:34.392Z,1.40
2022-10-31T11:37:46.563Z,1.80
2022-10-31T11:41:02.062Z,1.87
2022-10-31T11:44:19.989Z,1.43
2022-10-31T11:47:33.710Z,1.70
2022-10-31T11:50:44.537Z,1.40
2022-10-31T11:54:00.153Z,1.77
2022-10-31T11:57:30.827Z,1.93
2022-10-31T12:00:41.959Z,1.80
2022-10-31T12:04:08.531Z,2.03
2022-10-31T12:07:17.023Z,1.60
2022-10-31T12:10:40.362Z,1.63
2022-10-31T12:14:09.203Z,1.97
2022-10-31T12:17:25.513Z,1.57
2022-10-31T12:20:51.741Z,1.60
2022-10-31T12:24:18.776Z,2.10
2022-10-31T12:27:46.247Z,1.67
2022-10-31T12:31:17.876Z,1.53
2022-10-31T12:35:10.571Z,1.73
2022-10-31T12:38:39.418Z,1.83
2022-10-31T12:41:55.338Z,1.57
2022-10-31T12:45:44.028Z,2.40
2022-10-31T12:49:30.038Z,1.90
2022-10-31T12:52:58.668Z,1.80
2022-10-31T12:56:33.689Z,1.87
2022-10-31T12:59:49.434Z,1.90
2022-10-31T13:03:07.334Z,2.30
2022-10-31T13:06:23.207Z,2.37
2022-10-31T13:09:44.319Z,2.27
2022-10-31T13:13:03.855Z,2.40
2022-10-31T13:16:18.641Z,2.30
2022-10-31T13:19:34.064Z,2.10
2022-10-31T13:22:49.324Z,2.53
2022-10-31T13:26:03.409Z,2.03
2022-10-31T13:29:26.865Z,4.00
2022-10-31T13:32:45.389Z,2.73
2022-10-31T13:36:07.187Z,2.57
2022-10-31T13:39:34.985Z,2.40
2022-10-31T13:42:57.585Z,1.93
2022-10-31T13:46:26.037Z,2.73
2022-10-31T13:49:42.015Z,2.40
2022-10-31T13:52:50.458Z,3.10
2022-10-31T13:56:17.470Z,2.57
2022-10-31T13:59:29.227Z,3.73
2022-10-31T14:02:38.954Z,3.63
2022-10-31T14:05:56.385Z,2.90
2022-10-31T14:09:05.233Z,2.60
2022-10-31T14:12:28.732Z,2.60
2022-10-31T14:15:43.129Z,3.30
2022-10-31T14:19:02.596Z,3.17
2022-10-31T14:22:23.059Z,3.53
2022-10-31T14:25:34.797Z,2.80
2022-10-31T14:28:44.694Z,2.37
2022-10-31T14:32:11.762Z,2.40
2022-10-31T14:35:22.308Z,2.23
2022-10-31T14:38:49.494Z,3.07
2022-10-31T14:42:18.192Z,2.93
2022-10-31T14:45:42.229Z,2.63
2022-10-31T14:49:14.426Z,2.60
2022-10-31T14:52:23.578Z,3.00
2022-10-31T14:55:33.060Z,2.90
2022-10-31T14:58:46.771Z,3.60
2022-10-31T15:02:03.544Z,3.33
2022-10-31T15:05:14.666Z,3.63
2022-10-31T15:08:36.877Z,3.20
2022-10-31T15:11:46.401Z,3.00
2022-10-31T15:14:56.857Z,3.47
2022-10-31T15:18:08.158Z,3.83
2022-10-31T15:21:18.451Z,3.20
2022-10-31T15:24:34.826Z,3.03
2022-10-31T15:27:43.404Z,4.87
2022-10-31T15:30:58.022Z,4.40
2022-10-31T15:34:24.199Z,4.50
2022-10-31T15:41:29.936Z,4.10
2022-10-31T15:44:44.563Z,4.43
2022-10-31T15:47:59.747Z,4.10
2022-10-31T15:51:09.808Z,4.60
2022-10-31T15:54:18.299Z,4.07
2022-10-31T15:57:28.255Z,3.60
2022-10-31T16:00:40.310Z,4.07
2022-10-31T16:04:02.767Z,4.57
2022-10-31T16:07:40.986Z,4.27
2022-10-31T16:10:50.334Z,3.47
2022-10-31T16:14:04.044Z,5.50
2022-10-31T16:17:16.209Z,5.63
2022-10-31T16:20:32.943Z,4.07
2022-10-31T16:23:58.407Z,4.03
2022-10-31T16:27:21.650Z,4.10
2022-10-31T16:30:45.388Z,4.53
2022-10-31T16:34:06.069Z,3.77
2022-10-31T16:37:14.538Z,4.77
2022-10-31T16:40:24.858Z,4.93
2022-10-31T16:43:33.979Z,4.57
2022-10-31T16:46:42.569Z,5.70
2022-10-31T16:49:54.884Z,6.17
2022-10-31T16:53:19.237Z,6.57
2022-10-31T16:56:51.020Z,5.70
2022-10-31T17:00:00.333Z,5.90
2022-10-31T17:03:11.237Z,6.13
2022-10-31T17:06:19.639Z,6.43
2022-10-31T17:09:28.051Z,5.17
2022-10-31T17:12:39.020Z,4.97
2022-10-31T17:15:53.079Z,4.93
2022-10-31T17:19:01.357Z,5.43
2022-10-31T17:22:13.371Z,5.80
2022-10-31T17:25:24.496Z,5.17
2022-10-31T17:28:39.688Z,5.30
2022-10-31T17:31:50.304Z,4.93
2022-10-31T17:34:58.719Z,4.30
2022-10-31T17:38:07.065Z,3.97
2022-10-31T17:41:15.506Z,3.97
2022-10-31T17:44:25.233Z,3.60
2022-10-31T17:47:34.240Z,3.10
2022-10-31T17:50:43.004Z,3.40
2022-10-31T17:53:51.387Z,4.37
2022-10-31T17:57:04.557Z,5.13
2022-10-31T18:00:19.434Z,3.67
2022-10-31T18:03:28.610Z,3.07
2022-10-31T18:06:46.174Z,2.80
2022-10-31T18:09:55.505Z,3.43
2022-10-31T18:13:04.873Z,3.40
2022-10-31T18:16:19.684Z,3.70
2022-10-31T18:19:28.090Z,4.27
2022-10-31T18:22:36.562Z,3.47
2022-10-31T18:25:44.845Z,3.03
2022-10-31T18:28:53.340Z,3.67
2022-10-31T18:32:08.248Z,4.20
2022-10-31T18:35:17.598Z,3.00
2022-10-31T18:38:25.956Z,2.90
2022-10-31T18:41:35.558Z,3.37
2022-10-31T18:44:44.058Z,4.30
2022-10-31T18:47:54.157Z,4.60
2022-10-31T18:54:13.393Z,6.53
2022-10-31T18:57:21.707Z,6.30
2022-10-31T19:00:30.350Z,5.87
2022-10-31T19:03:41.177Z,4.53
2022-10-31T19:06:49.536Z,5.40
2022-10-31T19:09:58.281Z,4.90
2022-10-31T19:13:07.010Z,5.73
2022-10-31T19:16:18.421Z,5.97
2022-10-31T19:19:28.294Z,4.70
2022-10-31T19:22:36.697Z,4.50
2022-10-31T19:28:58.641Z,5.10
2022-10-31T19:32:07.558Z,4.87
2022-10-31T19:35:17.527Z,4.57
2022-10-31T19:38:26.167Z,4.57
2022-10-31T19:41:34.549Z,4.63
2022-10-31T19:44:43.428Z,3.90
2022-10-31T19:47:51.791Z,4.07
2022-10-31T19:51:07.483Z,4.20
2022-10-31T19:54:16.176Z,4.07
2022-10-31T19:57:48.466Z,3.80
2022-10-31T20:00:53.847Z,3.60
2022-10-31T20:04:02.434Z,3.10
2022-10-31T20:07:12.315Z,9.60
2022-10-31T20:10:20.921Z,7.33
2022-10-31T20:13:31.248Z,9.10
2022-10-31T20:16:40.491Z,15.50
2022-10-31T20:19:49.117Z,9.43
2022-10-31T20:23:01.625Z,11.60
2022-10-31T20:26:16.566Z,9.27
2022-10-31T20:33:07.661Z,8.43
2022-10-31T20:36:19.457Z,6.60
2022-10-31T20:39:29.650Z,5.40
2022-10-31T20:42:38.381Z,5.03
2022-10-31T20:45:46.646Z,4.67
2022-10-31T20:48:55.928Z,5.60
2022-10-31T20:52:04.378Z,10.20
2022-10-31T20:55:14.569Z,10.50
2022-10-31T20:58:23.010Z,9.40
2022-10-31T21:01:33.526Z,8.07
2022-10-31T21:04:42.012Z,7.87
2022-10-31T21:11:09.952Z,5.93
2022-10-31T21:14:18.187Z,5.97
2022-10-31T21:17:26.748Z,5.40
2022-10-31T21:20:35.436Z,5.20
2022-10-31T21:23:44.720Z,5.40
2022-10-31T21:26:56.133Z,6.73
2022-10-31T21:30:05.909Z,5.70
2022-10-31T21:33:14.364Z,4.70
2022-10-31T21:36:22.930Z,3.80
2022-10-31T21:39:31.175Z,4.63
2022-10-31T21:42:40.851Z,5.30
2022-10-31T21:45:49.107Z,5.07
2022-10-31T21:48:58.244Z,4.20
2022-10-31T21:52:06.634Z,3.03
2022-10-31T21:55:15.185Z,2.80
2022-10-31T21:58:24.884Z,3.43
2022-10-31T22:01:34.515Z,3.03
2022-10-31T22:04:44.121Z,2.83
2022-10-31T22:07:52.457Z,3.00
2022-10-31T22:11:03.974Z,3.33
2022-10-31T22:14:16.424Z,2.93
2022-10-31T22:17:28.836Z,2.57
2022-10-31T22:20:39.105Z,3.33
2022-10-31T22:23:52.825Z,3.17
2022-10-31T22:27:01.468Z,3.60
2022-10-31T22:30:13.000Z,3.67
2022-10-31T22:33:21.195Z,3.40
2022-10-31T22:36:32.045Z,5.60
2022-10-31T22:39:40.249Z,3.83
2022-10-31T22:42:48.592Z,3.50
2022-10-31T22:46:03.560Z,3.70
2022-10-31T22:49:16.532Z,3.00
2022-10-31T22:52:24.739Z,2.93
2022-10-31T22:55:37.527Z,2.97
2022-10-31T22:58:46.202Z,3.10
2022-10-31T23:01:56.182Z,3.20
2022-10-31T23:05:04.848Z,3.13
2022-10-31T23:08:13.652Z,2.90
2022-10-31T23:11:25.373Z,2.87
2022-10-31T23:14:32.885Z,3.20
2022-10-31T23:17:43.017Z,2.83
2022-10-31T23:20:53.319Z,2.20
2022-10-31T23:24:03.030Z,2.60
2022-10-31T23:27:16.411Z,2.97
2022-10-31T23:30:25.749Z,3.67
2022-10-31T23:33:35.949Z,2.77
2022-10-31T23:36:44.167Z,3.20
2022-10-31T23:39:52.494Z,2.67
2022-10-31T23:43:00.791Z,2.80
2022-10-31T23:46:09.034Z,3.07
2022-10-31T23:49:18.653Z,3.03
2022-10-31T23:52:26.876Z,2.67
2022-10-31T23:55:35.181Z,2.90
2022-10-31T23:58:43.556Z,2.73
